Time,TemperatureF,DewpointF,PressureIn,WindDirection,WindDirectionDegrees,WindSpeedMPH,WindSpeedGustMPH,Humidity,HourlyPrecipIn,Conditions,Clouds,dailyrainin,SoftwareType,DateUTC
2013-04-16 00:14:00,50.7,32.0,30.26,ESE,118,12.0,15.0,48,0.00,,,0.00,weatherlink.com 1.10,2013-04-16 04:14:00,
2013-04-16 00:29:00,50.4,31.0,30.26,ESE,114,9.0,13.0,48,0.00,,,0.00,weatherlink.com 1.10,2013-04-16 04:29:00,
2013-04-16 00:45:00,50.1,31.0,30.27,ESE,120,9.0,15.0,48,0.00,,,0.00,weatherlink.com 1.10,2013-04-16 04:45:00,
2013-04-16 01:01:00,49.9,31.0,30.27,ESE,104,5.0,14.0,49,0.00,,,0.00,weatherlink.com 1.10,2013-04-16 05:01:00,
2013-04-16 01:16:00,49.6,31.0,30.27,SE,129,3.0,15.0,49,0.00,,,0.00,weatherlink.com 1.10,2013-04-16 05:16:00,
2013-04-16 01:32:00,49.4,31.0,30.27,ESE,115,11.0,12.0,49,0.00,,,0.00,weatherlink.com 1.10,2013-04-16 05:32:00,
2013-04-16 01:48:00,49.2,31.0,30.26,ESE,118,7.0,15.0,49,0.00,,,0.00,weatherlink.com 1.10,2013-04-16 05:48:00,
2013-04-16 02:04:00,49.2,31.0,30.26,ENE,73,12.0,14.0,49,0.00,,,0.00,weatherlink.com 1.10,2013-04-16 06:04:00,
2013-04-16 02:20:00,49.1,31.0,30.25,WSW,239,4.0,14.0,49,0.00,,,0.00,weatherlink.com 1.10,2013-04-16 06:20:00,
2013-04-16 02:35:00,49.0,30.0,30.25,East,101,7.0,14.0,48,0.00,,,0.00,weatherlink.com 1.10,2013-04-16 06:35:00,
2013-04-16 02:51:00,49.1,30.0,30.25,East,91,4.0,15.0,48,0.00,,,0.00,weatherlink.com 1.10,2013-04-16 06:51:00,
2013-04-16 03:07:00,49.0,30.0,30.25,East,101,11.0,14.0,48,0.00,,,0.00,weatherlink.com 1.10,2013-04-16 07:07:00,
2013-04-16 03:23:00,49.0,31.0,30.25,ESE,107,12.0,14.0,49,0.00,,,0.00,weatherlink.com 1.10,2013-04-16 07:23:00,
2013-04-16 03:38:00,49.2,31.0,30.25,ESE,106,9.0,14.0,49,0.00,,,0.00,weatherlink.com 1.10,2013-04-16 07:38:00,
2013-04-16 03:54:00,49.3,31.0,30.25,ESE,112,10.0,17.0,49,0.00,,,0.00,weatherlink.com 1.10,2013-04-16 07:54:00,
2013-04-16 04:10:00,49.3,31.0,30.25,East,90,9.0,12.0,50,0.00,,,0.00,weatherlink.com 1.10,2013-04-16 08:10:00,
2013-04-16 04:26:00,49.1,32.0,30.25,East,95,6.0,13.0,51,0.00,,,0.00,weatherlink.com 1.10,2013-04-16 08:26:00,
2013-04-16 04:42:00,49.1,33.0,30.24,East,89,4.0,14.0,53,0.00,,,0.00,weatherlink.com 1.10,2013-04-16 08:42:00,
2013-04-16 04:57:00,48.9,33.0,30.23,SE,132,4.0,13.0,54,0.00,,,0.00,weatherlink.com 1.10,2013-04-16 08:57:00,
2013-04-16 05:13:00,48.9,34.0,30.23,East,84,10.0,15.0,56,0.00,,,0.00,weatherlink.com 1.10,2013-04-16 09:13:00,
2013-04-16 05:29:00,49.1,35.0,30.23,ESE,107,12.0,21.0,57,0.00,,,0.00,weatherlink.com 1.10,2013-04-16 09:29:00,
2013-04-16 05:45:00,49.1,35.0,30.23,East,93,12.0,20.0,58,0.00,,,0.00,weatherlink.com 1.10,2013-04-16 09:45:00,
2013-04-16 06:01:00,49.1,35.0,30.22,SE,129,11.0,23.0,58,0.00,,,0.00,weatherlink.com 1.10,2013-04-16 10:01:00,
2013-04-16 06:17:00,48.9,35.0,30.23,ESE,115,10.0,22.0,59,0.00,,,0.00,weatherlink.com 1.10,2013-04-16 10:17:00,
2013-04-16 06:32:00,48.7,35.0,30.24,SE,136,8.0,14.0,60,0.00,,,0.00,weatherlink.com 1.10,2013-04-16 10:32:00,
2013-04-16 06:48:00,48.4,36.0,30.24,East,90,5.0,12.0,61,0.00,,,0.00,weatherlink.com 1.10,2013-04-16 10:48:00,
2013-04-16 07:04:00,48.4,36.0,30.25,ESE,116,11.0,17.0,62,0.00,,,0.00,weatherlink.com 1.10,2013-04-16 11:04:00,
2013-04-16 07:19:00,49.1,37.0,30.25,East,86,6.0,20.0,64,0.00,,,0.00,weatherlink.com 1.10,2013-04-16 11:19:00,
2013-04-16 07:35:00,49.9,39.0,30.24,ESE,122,6.0,19.0,65,0.00,,,0.00,weatherlink.com 1.10,2013-04-16 11:35:00,
2013-04-16 07:51:00,49.9,39.0,30.24,East,82,7.0,16.0,67,0.00,,,0.00,weatherlink.com 1.10,2013-04-16 11:51:00,
2013-04-16 08:07:00,50.2,40.0,30.23,East,96,13.0,17.0,68,0.00,,,0.00,weatherlink.com 1.10,2013-04-16 12:07:00,
2013-04-16 08:23:00,50.6,40.0,30.23,ESE,115,8.0,20.0,68,0.00,,,0.00,weatherlink.com 1.10,2013-04-16 12:23:00,
2013-04-16 08:38:00,50.6,40.0,30.22,ESE,121,6.0,18.0,68,0.00,,,0.00,weatherlink.com 1.10,2013-04-16 12:38:00,
2013-04-16 08:54:00,50.9,41.0,30.22,NE,46,4.0,21.0,68,0.00,,,0.00,weatherlink.com 1.10,2013-04-16 12:54:00,
2013-04-16 09:10:00,51.9,42.0,30.21,ENE,76,4.0,18.0,68,0.00,,,0.00,weatherlink.com 1.10,2013-04-16 13:10:00,
2013-04-16 09:26:00,52.7,42.0,30.21,ESE,104,17.0,17.0,67,0.00,,,0.00,weatherlink.com 1.10,2013-04-16 13:26:00,
2013-04-16 09:41:00,53.3,43.0,30.21,SE,143,7.0,17.0,67,0.00,,,0.00,weatherlink.com 1.10,2013-04-16 13:41:00,
2013-04-16 09:57:00,53.9,42.0,30.20,ESE,116,5.0,24.0,65,0.00,,,0.00,weatherlink.com 1.10,2013-04-16 13:57:00,
2013-04-16 10:13:00,54.3,43.0,30.18,ENE,75,7.0,22.0,65,0.00,,,0.00,weatherlink.com 1.10,2013-04-16 14:13:00,
2013-04-16 10:29:00,54.1,43.0,30.18,East,90,4.0,25.0,67,0.00,,,0.00,weatherlink.com 1.10,2013-04-16 14:29:00,
2013-04-16 10:45:00,54.8,44.0,30.17,SSE,148,5.0,28.0,66,0.00,,,0.00,weatherlink.com 1.10,2013-04-16 14:45:00,
2013-04-16 11:00:00,55.4,44.0,30.17,East,98,13.0,25.0,66,0.00,,,0.00,weatherlink.com 1.10,2013-04-16 15:00:00,
2013-04-16 11:16:00,56.5,45.0,30.16,East,87,6.0,30.0,66,0.00,,,0.00,weatherlink.com 1.10,2013-04-16 15:16:00,
2013-04-16 11:32:00,57.8,46.0,30.15,SE,129,3.0,22.0,65,0.00,,,0.00,weatherlink.com 1.10,2013-04-16 15:32:00,
2013-04-16 11:48:00,59.5,46.0,30.13,ESE,116,20.0,25.0,62,0.00,,,0.00,weatherlink.com 1.10,2013-04-16 15:48:00,
2013-04-16 12:04:00,59.1,47.0,30.13,ESE,106,15.0,25.0,63,0.00,,,0.00,weatherlink.com 1.10,2013-04-16 16:04:00,
2013-04-16 12:19:00,59.5,47.0,30.12,SE,127,12.0,25.0,63,0.00,,,0.00,weatherlink.com 1.10,2013-04-16 16:19:00,
2013-04-16 12:35:00,60.5,47.0,30.11,SE,124,17.0,25.0,62,0.00,,,0.00,weatherlink.com 1.10,2013-04-16 16:35:00,
2013-04-16 12:51:00,60.8,48.0,30.10,ESE,115,9.0,37.0,62,0.00,,,0.00,weatherlink.com 1.10,2013-04-16 16:51:00,
2013-04-16 13:07:00,61.0,48.0,30.10,East,96,8.0,23.0,62,0.00,,,0.00,weatherlink.com 1.10,2013-04-16 17:07:00,
2013-04-16 13:22:00,59.9,49.0,30.10,ESE,103,17.0,22.0,67,0.00,,,0.00,weatherlink.com 1.10,2013-04-16 17:22:00,
2013-04-16 13:38:00,59.8,49.0,30.09,ESE,110,6.0,20.0,67,0.00,,,0.00,weatherlink.com 1.10,2013-04-16 17:38:00,
2013-04-16 13:54:00,60.7,49.0,30.09,ESE,119,10.0,25.0,65,0.00,,,0.00,weatherlink.com 1.10,2013-04-16 17:54:00,
2013-04-16 14:10:00,61.2,49.0,30.09,SSE,156,6.0,25.0,64,0.00,,,0.00,weatherlink.com 1.10,2013-04-16 18:10:00,
2013-04-16 14:42:00,60.5,50.0,30.09,ESE,112,9.0,20.0,69,0.00,,,0.00,weatherlink.com 1.10,2013-04-16 18:42:00,
2013-04-16 14:57:00,59.3,51.0,30.09,SE,136,8.0,22.0,73,0.03,,,0.03,weatherlink.com 1.10,2013-04-16 18:57:00,
2013-04-16 15:13:00,57.5,52.0,30.09,East,84,10.0,18.0,81,0.08,,,0.08,weatherlink.com 1.10,2013-04-16 19:13:00,
2013-04-16 15:29:00,57.2,52.0,30.07,East,90,7.0,12.0,83,0.08,,,0.08,weatherlink.com 1.10,2013-04-16 19:29:00,
2013-04-16 15:45:00,58.0,52.0,30.05,WNW,287,2.0,20.0,81,0.07,,,0.08,weatherlink.com 1.10,2013-04-16 19:45:00,
2013-04-16 16:01:00,58.8,52.0,30.04,East,91,8.0,17.0,79,0.04,,,0.08,weatherlink.com 1.10,2013-04-16 20:01:00,
2013-04-16 16:16:00,59.0,52.0,30.04,ESE,119,17.0,19.0,79,0.00,,,0.08,weatherlink.com 1.10,2013-04-16 20:16:00,
2013-04-16 16:32:00,59.1,53.0,30.05,ENE,69,6.0,17.0,79,0.00,,,0.08,weatherlink.com 1.10,2013-04-16 20:32:00,
2013-04-16 16:48:00,58.5,53.0,30.03,ESE,105,10.0,16.0,82,0.03,,,0.11,weatherlink.com 1.10,2013-04-16 20:48:00,
2013-04-16 17:04:00,58.4,53.0,30.02,SSE,148,9.0,20.0,83,0.05,,,0.13,weatherlink.com 1.10,2013-04-16 21:04:00,
2013-04-16 17:19:00,58.7,54.0,30.02,East,84,9.0,14.0,83,0.05,,,0.13,weatherlink.com 1.10,2013-04-16 21:19:00,
2013-04-16 17:35:00,59.5,54.0,30.01,ESE,110,10.0,14.0,81,0.05,,,0.13,weatherlink.com 1.10,2013-04-16 21:35:00,
2013-04-16 17:51:00,60.4,53.0,30.01,East,93,28.0,28.0,77,0.02,,,0.13,weatherlink.com 1.10,2013-04-16 21:51:00,
2013-04-16 18:07:00,60.9,53.0,30.00,SE,127,11.0,20.0,75,0.00,,,0.13,weatherlink.com 1.10,2013-04-16 22:07:00,
2013-04-16 18:23:00,61.0,53.0,29.99,ESE,123,6.0,19.0,74,0.00,,,0.13,weatherlink.com 1.10,2013-04-16 22:23:00,
2013-04-16 18:39:00,61.1,53.0,30.00,SE,125,6.0,17.0,74,0.00,,,0.13,weatherlink.com 1.10,2013-04-16 22:39:00,
2013-04-16 18:54:00,60.9,52.0,29.99,East,84,8.0,18.0,73,0.00,,,0.13,weatherlink.com 1.10,2013-04-16 22:54:00,
2013-04-16 19:10:00,60.6,52.0,30.00,ESE,108,9.0,20.0,73,0.00,,,0.13,weatherlink.com 1.10,2013-04-16 23:10:00,
2013-04-16 19:26:00,60.4,52.0,29.99,ESE,120,8.0,15.0,74,0.00,,,0.13,weatherlink.com 1.10,2013-04-16 23:26:00,
2013-04-16 19:42:00,60.3,52.0,29.98,ESE,103,7.0,22.0,74,0.00,,,0.13,weatherlink.com 1.10,2013-04-16 23:42:00,
2013-04-16 19:57:00,60.4,52.0,29.98,East,84,8.0,22.0,74,0.00,,,0.13,weatherlink.com 1.10,2013-04-16 23:57:00,
2013-04-16 20:14:00,60.3,52.0,29.98,ESE,103,12.0,16.0,75,0.00,,,0.13,weatherlink.com 1.10,2013-04-17 00:14:00,
2013-04-16 20:29:00,60.4,52.0,29.99,SE,129,13.0,23.0,75,0.00,,,0.13,weatherlink.com 1.10,2013-04-17 00:29:00,
2013-04-16 20:45:00,60.4,52.0,29.98,SE,127,9.0,22.0,75,0.00,,,0.13,weatherlink.com 1.10,2013-04-17 00:45:00,
2013-04-16 21:17:00,60.4,53.0,29.99,SE,141,11.0,20.0,76,0.00,,,0.13,weatherlink.com 1.10,2013-04-17 01:17:00,
2013-04-16 21:32:00,60.3,53.0,30.01,East,89,11.0,20.0,77,0.00,,,0.13,weatherlink.com 1.10,2013-04-17 01:32:00,
2013-04-16 21:48:00,59.4,53.0,30.05,SSW,203,5.0,10.0,79,0.00,,,0.13,weatherlink.com 1.10,2013-04-17 01:48:00,
2013-04-16 22:04:00,58.7,53.0,30.05,ESE,112,3.0,5.0,81,0.00,,,0.13,weatherlink.com 1.10,2013-04-17 02:04:00,
2013-04-16 22:20:00,58.5,53.0,30.06,ESE,115,2.0,5.0,82,0.01,,,0.14,weatherlink.com 1.10,2013-04-17 02:20:00,
2013-04-16 22:36:00,57.9,53.0,30.07,SSW,211,1.0,5.0,85,0.01,,,0.14,weatherlink.com 1.10,2013-04-17 02:36:00,
2013-04-16 22:52:00,57.6,53.0,30.07,WNW,296,0.0,10.0,85,0.01,,,0.14,weatherlink.com 1.10,2013-04-17 02:52:00,
2013-04-16 23:07:00,56.6,51.0,30.09,NNW,331,7.0,19.0,83,0.02,,,0.15,weatherlink.com 1.10,2013-04-17 03:07:00,
2013-04-16 23:23:00,54.9,49.0,30.09,NNW,332,0.0,13.0,79,0.02,,,0.16,weatherlink.com 1.10,2013-04-17 03:23:00,
2013-04-16 23:39:00,52.9,47.0,30.10,East,79,1.0,12.0,79,0.03,,,0.17,weatherlink.com 1.10,2013-04-17 03:39:00,
2013-04-16 23:54:00,52.3,44.0,30.10,NW,326,0.0,6.0,74,0.03,,,0.17,weatherlink.com 1.10,2013-04-17 03:54:00,